首页
METAR-TAF:

METAR-TAF

机场 :

萨翁林纳机场

萨翁林纳, 芬兰

纬度: 61-57N, 经度: 028-57E, 海拔: 95米

当前天气观测

该预报发布于23分钟前的11:20 UTC
风速3节,风向
温度 23°C
湿度 61%
气压 1013 hPa
能见度10公里或以上
少量云层高于3600英尺
散云层高于11800英尺

METAR: EFSA 201120Z 19003KT 9999 FEW036 SCT118 23/15 Q1013

时间: 14:43 (11:43 UTC)

预报

该预报发布于3小时和16分钟前的08:27 UTC
预报有效从20日的 09点(UTC)到 20日的 18点(UTC)
风速5节,风向西转西南
能见度10公里或以上
1500米以下无云,无积雨云
短暂存在
从 20日的 09点(UTC)到 20日的 15点(UTC)
少量云层高于2000英尺, 积雨云.
几率 30%
从 20日的 11点(UTC)到 20日的 15点(UTC)
能見度: 7000
雷暴, 雨

TAF: EFSA 200827Z 2009/2018 25005KT CAVOK TEMPO 2009/2015 FEW020CB PROB30 2011/2015 7000 TSRA

超过4000个机场的气象观测和天气预报(METAR&TAF报告)。

可查询的气象台以黄色和红色小点在地图上表示。

将鼠标移到小点上方,可查看气象台名称。

然后点击查看天气观测和预报。

如需切换地图:点击带黑十字的绿色按钮放大地图;点击带横线的绿色按钮缩小地图;或者点击绿色箭头查看邻近地区的地图。


METAR-TAF: